createdAt,value
2018-07-12T00:01:20.259Z,9.13
2018-07-12T00:03:46.767Z,9.37
2018-07-12T00:06:13.273Z,8.53
2018-07-12T00:08:45.918Z,7.53
2018-07-12T00:11:12.414Z,10.30
2018-07-12T00:13:38.881Z,9.47
2018-07-12T00:16:05.373Z,7.97
2018-07-12T00:18:31.857Z,8.23
2018-07-12T00:20:58.366Z,8.20
2018-07-12T00:23:24.833Z,10.50
2018-07-12T00:25:51.307Z,8.17
2018-07-12T00:28:17.802Z,8.20
2018-07-12T00:30:44.294Z,7.93
2018-07-12T00:33:10.865Z,9.30
2018-07-12T00:35:37.329Z,8.23
2018-07-12T00:38:03.800Z,8.00
2018-07-12T00:40:30.282Z,8.30
2018-07-12T00:42:56.774Z,9.27
2018-07-12T00:45:23.314Z,8.70
2018-07-12T00:47:50.094Z,9.57
2018-07-12T00:50:16.592Z,8.70
2018-07-12T00:52:43.074Z,10.00
2018-07-12T00:55:09.559Z,11.50
2018-07-12T00:57:36.060Z,8.27
2018-07-12T01:00:02.556Z,10.73
2018-07-12T01:02:29.059Z,8.97
2018-07-12T01:04:55.563Z,9.37
2018-07-12T01:07:22.053Z,9.77
2018-07-12T01:09:48.580Z,9.37
2018-07-12T01:12:15.071Z,13.10
2018-07-12T01:14:41.541Z,11.77
2018-07-12T01:17:08.006Z,11.87
2018-07-12T01:19:34.491Z,13.53
2018-07-12T01:22:01.066Z,13.57
2018-07-12T01:24:27.525Z,11.97
2018-07-12T01:26:53.998Z,13.27
2018-07-12T01:29:20.484Z,13.47
2018-07-12T01:31:46.976Z,15.53
2018-07-12T01:34:13.453Z,18.43
2018-07-12T01:36:39.929Z,24.43
2018-07-12T01:39:06.969Z,21.70
2018-07-12T01:41:33.482Z,18.43
2018-07-12T01:43:59.965Z,16.33
2018-07-12T01:46:26.437Z,10.77
2018-07-12T01:48:52.929Z,11.33
2018-07-12T01:51:19.402Z,9.43
2018-07-12T01:53:46.493Z,9.33
2018-07-12T01:56:12.983Z,11.07
2018-07-12T01:58:39.462Z,9.73
2018-07-12T02:01:05.960Z,11.00
2018-07-12T02:03:32.450Z,9.63
2018-07-12T02:05:58.974Z,8.93
2018-07-12T02:08:25.454Z,10.00
2018-07-12T02:10:51.925Z,14.23
2018-07-12T02:13:18.402Z,9.23
2018-07-12T02:15:44.869Z,10.33
2018-07-12T02:18:11.341Z,11.63
2018-07-12T02:20:37.805Z,10.77
2018-07-12T02:23:04.281Z,11.27
2018-07-12T02:25:30.754Z,11.63
2018-07-12T02:27:57.289Z,10.40
2018-07-12T02:30:23.753Z,11.30
2018-07-12T02:32:50.221Z,10.07
2018-07-12T02:35:16.752Z,11.10
2018-07-12T02:37:43.201Z,14.47
2018-07-12T02:40:09.677Z,11.17
2018-07-12T02:42:36.161Z,13.87
2018-07-12T02:45:02.641Z,12.70
2018-07-12T02:47:29.118Z,10.40
2018-07-12T02:49:55.625Z,13.63
2018-07-12T02:52:22.106Z,12.70
2018-07-12T02:54:48.577Z,11.53
2018-07-12T02:57:15.045Z,11.77
2018-07-12T02:59:41.517Z,11.40
2018-07-12T03:02:08.086Z,16.27
2018-07-12T03:04:34.577Z,12.60
2018-07-12T03:07:01.062Z,12.30
2018-07-12T03:09:27.549Z,13.23
2018-07-12T03:11:54.026Z,12.27
2018-07-12T03:14:20.541Z,12.00
2018-07-12T03:16:47.034Z,14.00
2018-07-12T03:19:13.528Z,14.13
2018-07-12T03:21:40.017Z,14.10
2018-07-12T03:24:06.506Z,11.80
2018-07-12T03:26:33.022Z,11.27
2018-07-12T03:28:59.498Z,9.13
2018-07-12T03:31:25.966Z,10.73
2018-07-12T03:33:52.442Z,14.13
2018-07-12T03:36:18.916Z,8.87
2018-07-12T03:38:45.426Z,10.20
2018-07-12T03:41:11.912Z,9.60
2018-07-12T03:43:38.382Z,11.30
2018-07-12T03:46:04.863Z,12.67
2018-07-12T03:48:31.338Z,12.50
2018-07-12T03:50:57.838Z,10.47
2018-07-12T03:53:24.307Z,10.60
2018-07-12T03:55:50.786Z,13.07
2018-07-12T03:58:17.244Z,11.53
2018-07-12T04:00:43.725Z,12.50
2018-07-12T04:03:10.222Z,11.07
2018-07-12T04:05:36.693Z,16.07
2018-07-12T04:08:03.231Z,11.90
2018-07-12T04:10:29.704Z,11.80
2018-07-12T04:12:56.198Z,10.13
2018-07-12T04:15:22.715Z,13.67
2018-07-12T04:17:49.193Z,8.57
2018-07-12T04:20:15.683Z,13.80
2018-07-12T04:22:42.203Z,13.37
2018-07-12T04:25:08.718Z,11.57
2018-07-12T04:27:35.228Z,13.97
2018-07-12T04:30:01.716Z,8.47
2018-07-12T04:32:28.237Z,9.03
2018-07-12T04:34:54.746Z,10.30
2018-07-12T04:37:21.224Z,8.17
2018-07-12T04:39:47.687Z,12.40
2018-07-12T04:42:14.152Z,6.50
2018-07-12T04:44:40.626Z,6.80
2018-07-12T04:47:07.126Z,9.23
2018-07-12T04:49:33.606Z,13.63
2018-07-12T04:52:00.695Z,12.70
2018-07-12T04:54:27.872Z,18.17
2018-07-12T04:56:54.342Z,11.13
2018-07-12T04:59:21.317Z,17.97
2018-07-12T05:01:48.231Z,12.83
2018-07-12T05:04:14.702Z,15.50
2018-07-12T05:06:41.209Z,11.37
2018-07-12T05:09:08.830Z,16.40
2018-07-12T05:11:35.333Z,22.27
2018-07-12T05:14:01.796Z,11.40
2018-07-12T05:16:28.333Z,15.70
2018-07-12T05:18:54.823Z,8.57
2018-07-12T05:21:21.303Z,17.53
2018-07-12T05:23:47.795Z,12.47
2018-07-12T05:26:14.283Z,12.10
2018-07-12T05:28:40.772Z,9.30
2018-07-12T05:31:07.843Z,13.07
2018-07-12T05:33:34.341Z,12.80
2018-07-12T05:36:09.414Z,12.97
2018-07-12T05:38:37.450Z,10.80
2018-07-12T05:41:05.266Z,10.53
2018-07-12T05:43:33.014Z,14.07
2018-07-12T05:46:00.747Z,13.70
2018-07-12T05:48:28.470Z,14.33
2018-07-12T05:50:56.344Z,13.17
2018-07-12T05:53:24.397Z,10.73
2018-07-12T05:55:52.258Z,9.73
2018-07-12T05:58:20.142Z,13.63
2018-07-12T06:00:47.990Z,14.60
2018-07-12T06:03:15.841Z,14.87
2018-07-12T06:05:43.709Z,12.53
2018-07-12T06:08:11.550Z,12.57
2018-07-12T06:10:39.391Z,9.87
2018-07-12T06:13:07.226Z,9.63
2018-07-12T06:15:35.794Z,10.10
2018-07-12T06:18:03.657Z,12.23
2018-07-12T06:20:31.493Z,9.43
2018-07-12T06:22:59.329Z,9.93
2018-07-12T06:25:27.183Z,11.93
2018-07-12T06:27:55.201Z,8.97
2018-07-12T06:30:23.093Z,11.57
2018-07-12T06:32:50.943Z,19.87
2018-07-12T06:35:18.781Z,13.83
2018-07-12T06:37:46.667Z,14.47
2018-07-12T06:40:14.534Z,12.90
2018-07-12T06:42:42.489Z,12.97
2018-07-12T06:45:10.278Z,12.57
2018-07-12T06:47:38.158Z,16.30
2018-07-12T06:50:06.004Z,11.70
2018-07-12T06:52:33.887Z,13.10
2018-07-12T06:55:01.758Z,11.20
2018-07-12T06:57:29.623Z,13.33
2018-07-12T06:59:57.533Z,12.40
2018-07-12T07:02:25.374Z,13.73
2018-07-12T07:04:53.232Z,16.70
2018-07-12T07:07:21.055Z,11.30
2018-07-12T07:09:48.934Z,10.47
2018-07-12T07:12:16.845Z,11.57
2018-07-12T07:14:44.734Z,11.83
2018-07-12T07:17:12.585Z,15.47
2018-07-12T07:19:40.484Z,10.90
2018-07-12T07:22:08.352Z,12.40
2018-07-12T07:24:36.219Z,9.70
2018-07-12T07:27:04.099Z,12.73
2018-07-12T07:29:31.962Z,14.50
2018-07-12T07:31:59.925Z,10.47
2018-07-12T07:34:27.802Z,11.40
2018-07-12T07:36:56.183Z,11.40
2018-07-12T07:39:24.027Z,12.17
2018-07-12T07:41:51.855Z,8.67
2018-07-12T07:44:19.742Z,8.77
2018-07-12T07:46:47.585Z,9.87
2018-07-12T07:49:15.443Z,7.93
2018-07-12T07:51:43.288Z,7.77
2018-07-12T07:54:11.121Z,24.17
2018-07-12T07:56:38.995Z,7.83
2018-07-12T07:59:06.854Z,6.10
2018-07-12T08:01:34.775Z,5.87
2018-07-12T08:04:02.699Z,7.90
2018-07-12T08:06:30.592Z,8.10
2018-07-12T08:08:58.427Z,8.20
2018-07-12T08:11:26.327Z,7.70
2018-07-12T08:13:54.210Z,6.63
2018-07-12T08:16:22.172Z,8.27
2018-07-12T08:18:49.996Z,6.83
2018-07-12T08:21:17.937Z,5.47
2018-07-12T08:23:46.493Z,5.67
2018-07-12T08:26:14.321Z,5.13
2018-07-12T08:28:42.230Z,5.97
2018-07-12T08:31:10.134Z,5.80
2018-07-12T08:33:37.973Z,7.90
2018-07-12T08:36:06.045Z,6.03
2018-07-12T08:38:33.907Z,5.87
2018-07-12T08:41:01.768Z,5.40
2018-07-12T08:43:29.637Z,6.30
2018-07-12T08:45:57.505Z,5.40
2018-07-12T08:48:25.716Z,5.20
2018-07-12T08:50:53.538Z,5.33
2018-07-12T08:53:21.374Z,5.57
2018-07-12T08:55:49.238Z,5.40
2018-07-12T08:58:17.734Z,5.83
2018-07-12T09:00:45.629Z,8.00
2018-07-12T09:03:15.306Z,7.07
2018-07-12T09:05:43.174Z,6.33
2018-07-12T09:08:11.019Z,6.73
2018-07-12T09:10:38.924Z,6.73
2018-07-12T09:13:06.785Z,6.13
2018-07-12T09:15:34.775Z,6.63
2018-07-12T09:18:02.578Z,5.70
2018-07-12T09:20:30.422Z,6.10
2018-07-12T09:22:58.271Z,5.33
2018-07-12T09:25:26.236Z,5.97
2018-07-12T09:27:54.078Z,5.90
2018-07-12T09:30:21.905Z,5.53
2018-07-12T09:32:49.721Z,5.20
2018-07-12T09:35:17.546Z,5.87
2018-07-12T09:37:45.381Z,5.37
2018-07-12T09:40:13.242Z,5.30
2018-07-12T09:42:41.145Z,5.17
2018-07-12T09:45:08.985Z,5.77
2018-07-12T09:47:36.981Z,5.60
2018-07-12T09:50:04.790Z,5.60
2018-07-12T09:52:33.456Z,5.60
2018-07-12T09:55:01.742Z,6.00
2018-07-12T09:57:41.341Z,5.80
2018-07-12T10:00:09.238Z,5.77
2018-07-12T10:02:42.739Z,6.30
2018-07-12T10:05:16.133Z,6.47
2018-07-12T10:07:49.981Z,5.33
2018-07-12T10:10:19.330Z,5.70
2018-07-12T10:12:52.879Z,5.63
2018-07-12T10:15:26.245Z,6.20
2018-07-12T10:17:59.577Z,5.33
2018-07-12T10:20:27.519Z,6.20
2018-07-12T10:22:55.422Z,5.50
2018-07-12T10:25:23.348Z,5.93
2018-07-12T10:27:51.180Z,5.80
2018-07-12T10:30:19.043Z,6.20
2018-07-12T10:32:46.889Z,6.80
2018-07-12T10:35:14.727Z,5.70
2018-07-12T10:37:42.589Z,5.93
2018-07-12T10:40:10.694Z,6.60
2018-07-12T10:42:38.543Z,6.00
2018-07-12T10:45:06.561Z,6.30
2018-07-12T10:47:34.595Z,6.13
2018-07-12T10:50:02.506Z,6.50
2018-07-12T10:52:30.440Z,5.53
2018-07-12T10:54:58.406Z,5.60
2018-07-12T10:57:26.351Z,5.60
2018-07-12T10:59:54.253Z,5.30
2018-07-12T11:02:22.177Z,6.03
2018-07-12T11:04:50.149Z,5.40
2018-07-12T11:07:18.147Z,5.60
2018-07-12T11:09:46.120Z,5.50
2018-07-12T11:12:14.009Z,5.53
2018-07-12T11:14:41.862Z,5.60
2018-07-12T11:17:09.698Z,5.57
2018-07-12T11:19:37.940Z,5.53
2018-07-12T11:22:06.032Z,5.00
2018-07-12T11:24:33.907Z,5.87
2018-07-12T11:27:01.730Z,5.27
2018-07-12T11:29:40.968Z,4.90
2018-07-12T11:32:08.785Z,4.87
2018-07-12T11:34:36.747Z,6.10
2018-07-12T11:37:04.661Z,5.30
2018-07-12T11:39:32.531Z,5.20
2018-07-12T11:42:00.383Z,5.40
2018-07-12T11:44:29.779Z,6.63
2018-07-12T11:46:57.665Z,5.93
2018-07-12T11:49:25.503Z,5.90
2018-07-12T11:51:53.365Z,5.97
2018-07-12T11:54:21.231Z,5.47
2018-07-12T11:56:49.114Z,5.27
2018-07-12T11:59:16.953Z,5.50
2018-07-12T12:01:44.879Z,5.60
2018-07-12T12:04:12.751Z,5.50
2018-07-12T12:06:40.621Z,5.20
2018-07-12T12:09:08.510Z,4.93
2018-07-12T12:11:36.357Z,5.10
2018-07-12T12:14:04.255Z,5.40
2018-07-12T12:16:32.107Z,5.33
2018-07-12T12:18:59.992Z,4.90
2018-07-12T12:21:27.842Z,4.53
2018-07-12T12:23:55.702Z,4.70
2018-07-12T12:26:23.587Z,6.23
2018-07-12T12:28:51.453Z,5.00
2018-07-12T12:31:19.350Z,5.03
2018-07-12T12:33:47.233Z,5.37
2018-07-12T12:36:15.083Z,5.63
2018-07-12T12:38:42.939Z,4.93
2018-07-12T12:41:10.801Z,5.07
2018-07-12T12:43:38.641Z,5.83
2018-07-12T12:46:06.475Z,4.93
2018-07-12T12:48:34.322Z,5.10
2018-07-12T12:51:02.156Z,5.00
2018-07-12T12:53:30.878Z,4.90
2018-07-12T12:55:58.773Z,4.70
2018-07-12T12:58:26.645Z,5.03
2018-07-12T13:00:54.449Z,4.87
2018-07-12T13:03:22.301Z,5.20
2018-07-12T13:05:50.150Z,4.80
2018-07-12T13:08:18.083Z,4.87
2018-07-12T13:10:46.041Z,5.03
2018-07-12T13:13:13.893Z,4.90
2018-07-12T13:15:41.781Z,5.30
2018-07-12T13:18:09.623Z,4.13
2018-07-12T13:20:37.481Z,5.47
2018-07-12T13:23:05.343Z,4.83
2018-07-12T13:25:33.315Z,4.40
2018-07-12T13:28:01.157Z,4.70
2018-07-12T13:30:29.009Z,5.40
2018-07-12T13:32:57.210Z,4.47
2018-07-12T13:35:25.045Z,4.93
2018-07-12T13:37:52.906Z,5.87
2018-07-12T13:40:20.837Z,4.63
2018-07-12T13:42:48.703Z,4.57
2018-07-12T13:45:16.558Z,5.00
2018-07-12T13:47:44.421Z,4.47
2018-07-12T13:50:12.323Z,4.50
2018-07-12T13:52:40.195Z,4.27
2018-07-12T13:55:08.104Z,7.33
2018-07-12T13:57:35.943Z,4.70
2018-07-12T14:00:04.019Z,5.33
2018-07-12T14:02:31.940Z,4.10
2018-07-12T14:04:59.851Z,5.50
2018-07-12T14:07:27.696Z,3.60
2018-07-12T14:09:56.018Z,5.37
2018-07-12T14:12:24.278Z,4.13
2018-07-12T14:14:52.154Z,5.77
2018-07-12T14:17:20.055Z,4.27
2018-07-12T14:19:47.947Z,4.33
2018-07-12T14:22:15.799Z,4.20
2018-07-12T14:24:43.641Z,3.87
2018-07-12T14:27:11.516Z,4.30
2018-07-12T14:29:39.358Z,4.23
2018-07-12T14:32:07.228Z,4.50
2018-07-12T14:34:35.142Z,4.37
2018-07-12T14:37:02.986Z,4.00
2018-07-12T14:39:30.835Z,4.27
2018-07-12T14:41:58.679Z,3.70
2018-07-12T14:44:26.547Z,4.63
2018-07-12T14:46:54.449Z,4.03
2018-07-12T14:49:22.305Z,4.03
2018-07-12T14:51:50.135Z,5.03
2018-07-12T14:54:18.018Z,4.63
2018-07-12T14:56:45.872Z,4.13
2018-07-12T14:59:13.812Z,3.80
2018-07-12T15:01:41.660Z,3.70
2018-07-12T15:04:09.704Z,3.73
2018-07-12T15:06:37.604Z,3.87
2018-07-12T15:09:07.087Z,3.73
2018-07-12T15:11:34.871Z,3.43
2018-07-12T15:14:02.827Z,3.93
2018-07-12T15:16:30.729Z,4.43
2018-07-12T15:18:58.598Z,3.90
2018-07-12T15:21:26.484Z,4.67
2018-07-12T15:23:54.363Z,4.13
2018-07-12T15:26:22.318Z,9.03
2018-07-12T15:28:50.286Z,3.10
2018-07-12T15:31:18.125Z,4.07
2018-07-12T15:33:45.961Z,4.53
2018-07-12T15:36:14.195Z,4.73
2018-07-12T15:38:42.123Z,4.00
2018-07-12T15:41:09.986Z,4.70
2018-07-12T15:43:37.925Z,4.33
2018-07-12T15:46:05.798Z,4.03
2018-07-12T15:48:33.686Z,5.23
2018-07-12T15:51:01.603Z,5.20
2018-07-12T15:53:29.784Z,4.60
2018-07-12T15:55:57.653Z,4.70
2018-07-12T15:58:25.550Z,4.60
2018-07-12T16:00:53.394Z,4.77
2018-07-12T16:03:21.516Z,4.87
2018-07-12T16:05:49.424Z,4.60
2018-07-12T16:08:17.296Z,4.33
2018-07-12T16:10:45.167Z,4.83
2018-07-12T16:13:13.022Z,4.93
2018-07-12T16:15:40.942Z,7.17
2018-07-12T16:18:08.798Z,5.33
2018-07-12T16:20:36.649Z,5.80
2018-07-12T16:23:04.558Z,5.30
2018-07-12T16:25:32.402Z,4.90
2018-07-12T16:28:00.243Z,5.10
2018-07-12T16:30:28.093Z,4.70
2018-07-12T16:32:55.918Z,5.00
2018-07-12T16:35:23.790Z,5.57
2018-07-12T16:37:51.654Z,5.40
2018-07-12T16:40:19.552Z,5.27
2018-07-12T16:42:47.431Z,5.10
2018-07-12T16:45:15.310Z,10.13
2018-07-12T16:47:43.164Z,5.70
2018-07-12T16:50:11.083Z,6.93
2018-07-12T16:52:38.958Z,6.33
2018-07-12T16:55:06.837Z,6.27
2018-07-12T16:57:34.683Z,5.40
2018-07-12T17:00:02.630Z,5.83
2018-07-12T17:02:30.491Z,6.00
2018-07-12T17:04:58.380Z,8.67
2018-07-12T17:07:26.246Z,4.80
2018-07-12T17:09:54.119Z,7.17
2018-07-12T17:12:22.018Z,5.97
2018-07-12T17:14:49.918Z,10.60
2018-07-12T17:17:17.831Z,6.67
2018-07-12T17:19:45.767Z,13.57
2018-07-12T17:22:13.642Z,7.57
2018-07-12T17:24:41.543Z,7.67
2018-07-12T17:27:09.405Z,6.73
2018-07-12T17:29:37.229Z,6.33
2018-07-12T17:32:05.193Z,10.73
2018-07-12T17:34:33.379Z,11.13
2018-07-12T17:37:01.289Z,9.07
2018-07-12T17:39:29.168Z,8.17
2018-07-12T17:41:57.021Z,12.77
2018-07-12T17:44:24.898Z,9.27
2018-07-12T17:46:52.766Z,12.00
2018-07-12T17:49:20.948Z,10.70
2018-07-12T17:51:48.807Z,9.83
2018-07-12T17:54:16.704Z,12.10
2018-07-12T17:56:44.526Z,10.10
2018-07-12T17:59:13.176Z,13.90
2018-07-12T18:01:41.232Z,11.00
2018-07-12T18:04:09.121Z,9.30
2018-07-12T18:06:37.536Z,10.67
2018-07-12T18:09:06.516Z,8.77
2018-07-12T18:11:34.474Z,10.80
2018-07-12T18:14:02.339Z,12.87
2018-07-12T18:16:30.196Z,7.33
2018-07-12T18:18:58.041Z,8.57
2018-07-12T18:21:25.918Z,9.33
2018-07-12T18:23:53.753Z,9.23
2018-07-12T18:26:21.591Z,12.83
2018-07-12T18:28:49.407Z,8.53
2018-07-12T18:31:17.577Z,13.37
2018-07-12T18:33:45.610Z,11.50
2018-07-12T18:36:13.470Z,14.70
2018-07-12T18:38:41.313Z,9.57
2018-07-12T18:41:09.223Z,12.37
2018-07-12T18:43:37.133Z,13.40
2018-07-12T18:46:05.190Z,8.93
2018-07-12T18:48:33.064Z,9.10
2018-07-12T18:51:00.920Z,10.87
2018-07-12T18:53:28.758Z,12.00
2018-07-12T18:55:56.640Z,11.00
2018-07-12T18:58:24.511Z,12.53
2018-07-12T19:00:52.377Z,11.77
2018-07-12T19:03:20.247Z,11.17
2018-07-12T19:05:48.093Z,12.03
2018-07-12T19:08:15.924Z,10.17
2018-07-12T19:10:43.763Z,12.30
2018-07-12T19:13:11.782Z,16.00
2018-07-12T19:15:39.657Z,11.60
2018-07-12T19:18:07.536Z,15.00
2018-07-12T19:20:35.439Z,11.87
2018-07-12T19:23:03.314Z,12.13
2018-07-12T19:25:31.182Z,10.80
2018-07-12T19:27:59.084Z,12.50
2018-07-12T19:30:26.943Z,11.83
2018-07-12T19:32:54.780Z,12.83
2018-07-12T19:35:22.722Z,10.67
2018-07-12T19:37:50.557Z,12.37
2018-07-12T19:40:18.415Z,9.50
2018-07-12T19:42:46.237Z,14.60
2018-07-12T19:45:14.073Z,10.23
2018-07-12T19:47:41.892Z,15.10
2018-07-12T19:50:09.760Z,13.00
2018-07-12T19:52:37.632Z,11.37
2018-07-12T19:55:05.539Z,11.23
2018-07-12T19:57:33.445Z,10.73
2018-07-12T20:00:01.270Z,13.67
2018-07-12T20:02:29.239Z,10.50
2018-07-12T20:04:57.151Z,9.00
2018-07-12T20:07:24.982Z,10.37
2018-07-12T20:09:52.850Z,9.87
2018-07-12T20:12:20.689Z,9.50
2018-07-12T20:14:48.559Z,10.87
2018-07-12T20:17:16.447Z,11.37
2018-07-12T20:19:44.288Z,11.27
2018-07-12T20:22:12.784Z,10.27
2018-07-12T20:24:40.628Z,10.80
2018-07-12T20:27:08.521Z,10.37
2018-07-12T20:29:36.407Z,9.57
2018-07-12T20:32:04.291Z,9.13
2018-07-12T20:34:32.148Z,10.27
2018-07-12T20:37:00.028Z,9.90
2018-07-12T20:39:27.915Z,9.30
2018-07-12T20:41:55.818Z,11.93
2018-07-12T20:44:23.707Z,11.10
2018-07-12T20:46:51.518Z,9.47
2018-07-12T20:49:19.343Z,9.80
2018-07-12T20:51:47.211Z,12.47
2018-07-12T20:54:15.149Z,10.70
2018-07-12T20:56:42.981Z,11.30
2018-07-12T20:59:10.809Z,8.63
2018-07-12T21:01:38.694Z,8.77
2018-07-12T21:04:06.532Z,8.30
2018-07-12T21:06:34.354Z,7.67
2018-07-12T21:09:02.235Z,8.07
2018-07-12T21:11:30.082Z,8.57
2018-07-12T21:13:57.910Z,7.83
2018-07-12T21:16:25.803Z,9.90
2018-07-12T21:18:53.618Z,8.27
2018-07-12T21:21:21.461Z,8.07
2018-07-12T21:23:49.379Z,8.30
2018-07-12T21:26:17.194Z,9.17
2018-07-12T21:28:45.034Z,9.03
2018-07-12T21:31:12.966Z,7.90
2018-07-12T21:33:40.873Z,8.53
2018-07-12T21:36:08.703Z,8.63
2018-07-12T21:38:36.530Z,10.07
2018-07-12T21:41:04.445Z,9.97
2018-07-12T21:43:32.297Z,8.00
2018-07-12T21:46:00.143Z,7.13
2018-07-12T21:48:27.998Z,7.47
2018-07-12T21:50:55.862Z,8.33
2018-07-12T21:53:23.777Z,9.43
2018-07-12T21:55:51.629Z,7.83
2018-07-12T21:58:19.498Z,7.57
2018-07-12T22:00:47.335Z,7.70
2018-07-12T22:03:15.242Z,8.97
2018-07-12T22:05:43.159Z,8.60
2018-07-12T22:08:12.842Z,9.20
2018-07-12T22:10:41.529Z,9.13
2018-07-12T22:13:10.017Z,8.90
2018-07-12T22:15:37.913Z,7.77
2018-07-12T22:18:06.072Z,8.20
2018-07-12T22:20:33.936Z,9.33
2018-07-12T22:23:01.986Z,7.77
2018-07-12T22:25:29.905Z,8.07
2018-07-12T22:27:57.934Z,8.07
2018-07-12T22:30:26.338Z,7.47
2018-07-12T22:32:54.216Z,7.93
2018-07-12T22:35:22.053Z,7.50
2018-07-12T22:37:49.946Z,7.80
2018-07-12T22:40:17.813Z,7.33
2018-07-12T22:42:45.668Z,7.33
2018-07-12T22:45:13.642Z,7.20
2018-07-12T22:47:41.466Z,7.07
2018-07-12T22:50:09.340Z,7.10
2018-07-12T22:52:37.190Z,7.77
2018-07-12T22:55:05.066Z,7.43
2018-07-12T22:57:32.894Z,7.70
2018-07-12T23:00:00.723Z,7.93
2018-07-12T23:02:28.584Z,10.70
2018-07-12T23:04:56.466Z,10.23
2018-07-12T23:07:24.343Z,11.87
2018-07-12T23:09:52.186Z,9.03
2018-07-12T23:12:20.038Z,8.33
2018-07-12T23:14:47.978Z,7.80
2018-07-12T23:17:15.823Z,10.37
2018-07-12T23:19:43.638Z,10.33
2018-07-12T23:22:11.489Z,7.70
2018-07-12T23:24:39.403Z,8.03
2018-07-12T23:27:07.205Z,9.60
2018-07-12T23:29:35.099Z,8.57
2018-07-12T23:32:02.992Z,9.53
2018-07-12T23:34:31.027Z,8.80
2018-07-12T23:36:59.239Z,9.73
2018-07-12T23:39:27.384Z,10.43
2018-07-12T23:41:55.455Z,10.57
2018-07-12T23:44:23.304Z,11.67
2018-07-12T23:46:51.387Z,11.90
2018-07-12T23:49:19.459Z,12.70
2018-07-12T23:51:47.329Z,12.30
2018-07-12T23:54:15.207Z,12.50
2018-07-12T23:56:43.133Z,13.13
2018-07-12T23:59:10.937Z,11.93
